Aeroporto :
LOGIN :

Iscrizione | Disclaimer

   EN    FR    IT 

 










Sommario :    VFR   VFR Marginale   IFR   IFR Intensivo   IFR Molto Intensivo
Visibilità : 
Base nubi : 
>= 8 km
>= 3000ft
5 / 8 km
1000 / 3000 ft
1500m / 5 km
500 / 1000 ft
800 / 1500m
200 / 500 ft
< 800m
< 200 ft
Simboli :   Temporali  Nebbia  Neve Forte  Precipitazioni Forti  Vento > 20 kt
SIGMETs :   Varie  Temporali  Ghiacco  Turbolenza  Onda orograficha  Ceneri Vulcaniche






- Altitudine del aeroporto : 32 ft
- Codice IATA : LKZ


EGUL - RAF Lakenheath

METARs OBSOLETI :
  • 202156Z 11004KT 9999 CLR 04/01 A2981 RMK AO2A SLPNO WND DATA ESTMD ALSTG ESTMD LAST

TAF AMD TAF EGUL
Valido dal 20 a 22 ore il 22 a 03 ore UTC


202200Z 2022/2203 13009KT 9999 SCT035 SCT250 QNH2977INS
BECMG 2105/2106 12009KT 9999 BKN020 QNH2964INS
BECMG 2110/2111 11010G15KT 9999 BKN015 QNH2965INS
BECMG 2113/2114 10009KT 9999 BKN007 QNH2958INS
TEMPO 2118/2121 BKN015
BECMG 2120/2121 13006KT 9999 SCT015 QNH2953INS TX07/2113Z TN01/2101Z LAST NO AMDS AFT 2022 NEXT 2105



MetMap, La meteo Aeronautica in un colpo d'occhio ! - Copyright ORBIFLY Dicembre 2007 - Disclaimer

ORBIFLY MET'MAP TEAM :

Programmazione e sviluppo : Alexandra Zaïnal
Concezione e sviluppo : Baudouin d'Aumeries
Co-Programmazione e sviluppo : Marc-Olivier Méhu
Supporto tecnico e logistico : Manuel Goepfert
Aiuto per la traduzione : Arnaldo La Scala

Contatto : metmap@orbifly.com




FONTI E CREDITI :

   NOAA